Time;durP1;ratioP1;P1;durP2;ratioP2;P2;SDS_P1;SDS_P2;PMS_P1;PMS_P2;Temp;Humidity;BMP_temperature;BMP_pressure;BME280_temperature;BME280_humidity;BME280_pressure;Samples;Min_cycle;Max_cycle;Signal;HPM_P1;HPM_P2
2022/05/26 00:01:04;;;;;;;;;1.00;1.00;;;;;;;;5059288;28;45222;-68
2022/05/26 00:03:30;;;;;;;;;3.00;1.67;;;;;;;;5050883;28;45437;-69
2022/05/26 00:05:55;;;;;;;;;3.67;1.00;;;;;;;;5050812;28;45446;-68
2022/05/26 00:08:20;;;;;;;;;1.33;1.33;;;;;;;;5053430;28;46303;-69
2022/05/26 00:10:46;;;;;;;;;1.67;0.67;;;;;;;;5059962;28;45465;-68
2022/05/26 00:13:11;;;;;;;;;1.00;1.00;;;;;;;;5051347;28;45280;-68
2022/05/26 00:15:37;;;;;;;;;2.00;1.33;;;;;;;;5058993;28;45276;-68
2022/05/26 00:18:02;;;;;;;;;3.67;1.00;;;;;;;;5051621;28;45349;-68
2022/05/26 00:20:28;;;;;;;;;2.00;2.00;;;;;;;;5059750;28;45299;-69
2022/05/26 00:22:53;;;;;;;;;1.67;1.00;;;;;;;;5053091;28;45307;-69
2022/05/26 00:25:18;;;;;;;;;1.00;1.00;;;;;;;;5059774;28;45209;-69
2022/05/26 00:27:43;;;;;;;;;1.00;1.00;;;;;;;;5053004;28;46580;-68
2022/05/26 00:30:09;;;;;;;;;1.00;1.00;;;;;;;;5060057;28;45179;-68
2022/05/26 00:32:34;;;;;;;;;1.33;0.33;;;;;;;;5053101;28;45371;-68
2022/05/26 00:35:00;;;;;;;;;3.00;0.67;;;;;;;;5058667;28;46165;-68
2022/05/26 00:37:25;;;;;;;;;2.67;1.00;;;;;;;;5053055;28;46071;-69
2022/05/26 00:39:51;;;;;;;;;1.33;0.33;;;;;;;;5055998;28;45215;-68
2022/05/26 00:42:16;;;;;;;;;2.67;0.00;;;;;;;;5055179;28;45227;-68
2022/05/26 00:44:42;;;;;;;;;0.33;0.33;;;;;;;;5056856;28;45370;-68
2022/05/26 00:47:13;;;;;;;;;0.67;0.00;;;;;;;;5053859;28;47003;-68
2022/05/26 00:49:43;;;;;;;;;2.00;0.00;;;;;;;;5050498;28;45462;-68
2022/05/26 00:52:17;;;;;;;;;1.33;0.00;;;;;;;;5076919;27;45319;-68
2022/05/26 00:54:43;;;;;;;;;1.00;1.00;;;;;;;;5057956;28;45275;-68
2022/05/26 00:57:11;;;;;;;;;1.00;0.33;;;;;;;;5055751;28;45596;-68
2022/05/26 00:59:55;;;;;;;;;0.00;0.00;;;;;;;;5051321;28;45366;-68
2022/05/26 01:02:23;;;;;;;;;0.67;0.67;;;;;;;;5054287;28;45439;-68
2022/05/26 01:04:50;;;;;;;;;0.33;0.33;;;;;;;;5054177;28;45221;-68
2022/05/26 01:07:19;;;;;;;;;2.00;1.00;;;;;;;;5051050;28;47035;-68
2022/05/26 01:09:44;;;;;;;;;0.67;0.67;;;;;;;;5059511;28;45451;-68
2022/05/26 01:12:09;;;;;;;;;1.67;1.00;;;;;;;;5054980;28;45320;-68
2022/05/26 01:14:37;;;;;;;;;0.33;0.33;;;;;;;;5054155;28;45388;-68
2022/05/26 01:17:12;;;;;;;;;2.00;1.00;;;;;;;;5052289;28;45298;-68
2022/05/26 01:19:40;;;;;;;;;0.00;0.00;;;;;;;;5055060;28;45394;-67
2022/05/26 01:22:11;;;;;;;;;1.00;1.00;;;;;;;;5052405;28;45434;-68
2022/05/26 01:24:48;;;;;;;;;1.00;1.00;;;;;;;;5058422;28;45577;-68
2022/05/26 01:27:27;;;;;;;;;1.00;1.00;;;;;;;;5051163;28;47348;-68
2022/05/26 01:30:02;;;;;;;;;1.67;0.67;;;;;;;;5054777;28;45300;-68
2022/05/26 01:32:27;;;;;;;;;0.00;0.00;;;;;;;;5055283;28;45517;-68
2022/05/26 01:34:58;;;;;;;;;1.00;1.00;;;;;;;;5060684;28;46289;-68
2022/05/26 01:37:32;;;;;;;;;0.00;0.00;;;;;;;;5054158;28;47002;-68
2022/05/26 01:40:16;;;;;;;;;0.00;0.00;;;;;;;;5062226;28;45497;-69
2022/05/26 01:42:41;;;;;;;;;1.00;0.33;;;;;;;;5058947;28;45313;-68
2022/05/26 01:45:16;;;;;;;;;1.00;1.00;;;;;;;;5058448;28;45339;-68
2022/05/26 01:47:49;;;;;;;;;2.00;0.67;;;;;;;;5058088;28;46714;-68
2022/05/26 01:50:19;;;;;;;;;1.67;1.00;;;;;;;;5060223;28;45355;-68
2022/05/26 01:52:51;;;;;;;;;1.00;1.00;;;;;;;;5059765;28;45325;-68
2022/05/26 01:55:23;;;;;;;;;1.00;1.00;;;;;;;;5060882;28;45563;-68
2022/05/26 01:57:53;;;;;;;;;1.00;1.00;;;;;;;;5054543;28;45732;-68
2022/05/26 02:00:19;;;;;;;;;0.67;0.67;;;;;;;;5061655;28;45347;-68
2022/05/26 02:02:52;;;;;;;;;0.00;0.00;;;;;;;;5052493;28;45408;-68
2022/05/26 02:05:21;;;;;;;;;1.00;1.00;;;;;;;;5060247;28;45533;-68
2022/05/26 02:07:49;;;;;;;;;2.00;0.67;;;;;;;;5055206;28;45378;-68
2022/05/26 02:10:26;;;;;;;;;1.33;0.33;;;;;;;;5061683;28;45310;-68
2022/05/26 02:12:57;;;;;;;;;0.33;0.33;;;;;;;;5051624;28;45350;-68
2022/05/26 02:15:30;;;;;;;;;0.67;0.67;;;;;;;;5059904;28;45467;-68
2022/05/26 02:17:57;;;;;;;;;3.00;1.00;;;;;;;;5054042;28;45996;-68
2022/05/26 02:20:44;;;;;;;;;2.67;0.00;;;;;;;;5059191;28;45248;-69
2022/05/26 02:23:32;;;;;;;;;0.00;0.00;;;;;;;;5054938;28;45498;-69
2022/05/26 02:25:59;;;;;;;;;1.00;1.00;;;;;;;;5051571;28;47411;-68
2022/05/26 02:28:25;;;;;;;;;1.00;1.00;;;;;;;;5054420;28;45364;-69
2022/05/26 02:30:50;;;;;;;;;0.00;0.00;;;;;;;;5060989;28;45279;-68
2022/05/26 02:33:16;;;;;;;;;0.00;0.00;;;;;;;;5054649;28;45167;-68
2022/05/26 02:35:43;;;;;;;;;0.00;0.00;;;;;;;;5061383;28;45206;-68
2022/05/26 02:38:10;;;;;;;;;0.33;0.33;;;;;;;;5055218;28;45449;-69
2022/05/26 02:40:35;;;;;;;;;0.00;0.00;;;;;;;;5055802;28;45322;-69
2022/05/26 02:43:04;;;;;;;;;1.00;1.00;;;;;;;;5052668;28;45322;-69
2022/05/26 02:45:29;;;;;;;;;2.00;0.67;;;;;;;;5058039;28;45307;-69
2022/05/26 02:47:57;;;;;;;;;1.00;1.00;;;;;;;;5056857;28;45580;-69
2022/05/26 02:50:42;;;;;;;;;2.33;1.00;;;;;;;;5059433;28;45566;-69
2022/05/26 02:53:27;;;;;;;;;0.00;0.00;;;;;;;;5056509;28;45247;-70
2022/05/26 02:56:12;;;;;;;;;1.67;1.00;;;;;;;;5047794;28;45932;-70
2022/05/26 02:58:57;;;;;;;;;1.00;0.00;;;;;;;;5050839;28;46308;-70
2022/05/26 03:01:26;;;;;;;;;1.00;1.00;;;;;;;;5058559;28;45339;-71
2022/05/26 03:04:10;;;;;;;;;1.00;1.00;;;;;;;;5048558;28;45462;-70
2022/05/26 03:06:59;;;;;;;;;0.00;0.00;;;;;;;;5055524;28;45406;-70
2022/05/26 03:09:24;;;;;;;;;0.00;0.00;;;;;;;;5051928;28;46775;-70
2022/05/26 03:11:51;;;;;;;;;0.00;0.00;;;;;;;;5056056;28;45337;-70
2022/05/26 03:14:17;;;;;;;;;2.00;0.00;;;;;;;;5058532;28;46351;-70
2022/05/26 03:16:43;;;;;;;;;1.33;0.00;;;;;;;;5056819;28;45615;-70
2022/05/26 03:19:09;;;;;;;;;0.00;0.00;;;;;;;;5057053;28;45567;-70
2022/05/26 03:21:34;;;;;;;;;0.00;0.00;;;;;;;;5056073;28;45362;-70
2022/05/26 03:24:00;;;;;;;;;2.00;0.00;;;;;;;;5054793;28;45508;-70
2022/05/26 03:26:25;;;;;;;;;0.00;0.00;;;;;;;;5058136;28;45414;-70
2022/05/26 03:28:50;;;;;;;;;0.00;0.00;;;;;;;;5058900;28;46935;-70
2022/05/26 03:31:16;;;;;;;;;0.00;0.00;;;;;;;;5058401;28;45581;-70
2022/05/26 03:41:53;;;;;;;;;0.33;0.33;;;;;;;;5055275;28;45659;-70
2022/05/26 03:44:19;;;;;;;;;1.00;1.00;;;;;;;;5055849;28;45491;-70
2022/05/26 03:46:44;;;;;;;;;0.00;0.00;;;;;;;;5052850;28;46130;-71
2022/05/26 03:49:09;;;;;;;;;1.00;1.00;;;;;;;;5058045;28;46120;-71
2022/05/26 03:51:35;;;;;;;;;0.00;0.00;;;;;;;;5056898;28;45269;-71
2022/05/26 03:54:00;;;;;;;;;1.00;1.00;;;;;;;;5055382;28;45313;-70
2022/05/26 03:56:25;;;;;;;;;0.00;0.00;;;;;;;;5057708;28;45489;-71
2022/05/26 03:58:50;;;;;;;;;0.33;0.00;;;;;;;;5051390;28;46137;-69
2022/05/26 04:01:16;;;;;;;;;1.67;0.33;;;;;;;;5058048;28;45478;-70
2022/05/26 04:03:41;;;;;;;;;1.00;1.00;;;;;;;;5049893;28;45444;-71
2022/05/26 04:06:06;;;;;;;;;1.00;1.00;;;;;;;;5051826;28;45316;-71
2022/05/26 04:08:31;;;;;;;;;0.67;0.67;;;;;;;;5051494;28;45322;-70
2022/05/26 04:10:57;;;;;;;;;4.00;1.67;;;;;;;;5059922;28;45421;-70
2022/05/26 04:13:22;;;;;;;;;1.00;1.00;;;;;;;;5052791;28;45415;-70
2022/05/26 04:15:47;;;;;;;;;1.00;1.00;;;;;;;;5054404;28;45314;-70
2022/05/26 04:18:12;;;;;;;;;2.33;1.33;;;;;;;;5052606;28;45408;-70
2022/05/26 04:20:37;;;;;;;;;3.00;2.00;;;;;;;;5060589;28;45428;-70
2022/05/26 04:23:03;;;;;;;;;1.00;1.00;;;;;;;;5054016;28;45578;-70
2022/05/26 04:25:29;;;;;;;;;3.00;1.67;;;;;;;;5059895;28;45414;-70
2022/05/26 04:27:54;;;;;;;;;1.00;1.00;;;;;;;;5052465;28;46033;-70
2022/05/26 04:30:20;;;;;;;;;3.00;2.00;;;;;;;;5058930;28;45299;-70
2022/05/26 04:32:45;;;;;;;;;2.00;2.00;;;;;;;;5048274;28;45275;-70
2022/05/26 04:35:11;;;;;;;;;5.67;2.00;;;;;;;;5051261;28;45276;-69
2022/05/26 04:37:37;;;;;;;;;1.00;1.00;;;;;;;;5049119;28;48047;-68
2022/05/26 04:40:03;;;;;;;;;1.00;1.00;;;;;;;;5051237;28;45317;-69
2022/05/26 04:42:29;;;;;;;;;2.33;1.33;;;;;;;;5055207;28;45389;-72
2022/05/26 04:44:54;;;;;;;;;1.00;1.00;;;;;;;;5057002;28;45433;-71
2022/05/26 04:47:20;;;;;;;;;1.67;1.67;;;;;;;;5052065;28;46368;-71
2022/05/26 04:49:45;;;;;;;;;2.67;2.00;;;;;;;;5056818;28;45334;-70
2022/05/26 04:52:12;;;;;;;;;0.00;0.00;;;;;;;;5056651;28;45438;-71
2022/05/26 04:54:38;;;;;;;;;1.00;1.00;;;;;;;;5050897;28;45339;-71
2022/05/26 04:57:04;;;;;;;;;1.00;1.00;;;;;;;;5056482;28;45410;-70
2022/05/26 04:59:30;;;;;;;;;1.67;1.67;;;;;;;;5050932;28;45282;-71
2022/05/26 05:01:55;;;;;;;;;2.33;1.67;;;;;;;;5044722;28;45306;-71
2022/05/26 05:04:24;;;;;;;;;1.33;1.00;;;;;;;;5056884;28;45274;-71
2022/05/26 05:06:50;;;;;;;;;0.00;0.00;;;;;;;;5055161;28;46230;-71
2022/05/26 05:09:15;;;;;;;;;1.00;1.00;;;;;;;;5057700;28;45360;-72
2022/05/26 05:11:41;;;;;;;;;2.00;2.00;;;;;;;;5055833;28;45434;-71
2022/05/26 05:14:06;;;;;;;;;2.00;2.00;;;;;;;;5050269;28;45368;-71
2022/05/26 05:16:34;;;;;;;;;2.00;2.00;;;;;;;;5054138;28;46020;-70
2022/05/26 05:19:00;;;;;;;;;2.67;2.00;;;;;;;;5055141;28;45217;-72
2022/05/26 05:21:28;;;;;;;;;4.67;2.00;;;;;;;;5056094;28;45381;-72
2022/05/26 05:23:58;;;;;;;;;1.67;1.67;;;;;;;;5054203;28;45687;-70
2022/05/26 05:26:23;;;;;;;;;2.00;1.00;;;;;;;;5056676;28;46609;-70
2022/05/26 05:28:53;;;;;;;;;0.67;0.67;;;;;;;;5057078;28;45392;-70
2022/05/26 05:31:28;;;;;;;;;1.00;1.00;;;;;;;;5057006;28;45251;-70
2022/05/26 05:33:56;;;;;;;;;1.00;1.00;;;;;;;;5052965;28;44993;-70
2022/05/26 05:36:24;;;;;;;;;2.00;1.00;;;;;;;;5056375;28;45459;-70
2022/05/26 05:38:49;;;;;;;;;2.67;1.00;;;;;;;;5053083;28;45372;-70
2022/05/26 05:41:15;;;;;;;;;3.00;2.00;;;;;;;;5057998;28;45220;-69
2022/05/26 05:43:41;;;;;;;;;1.33;1.33;;;;;;;;5054862;28;45323;-70
2022/05/26 05:46:06;;;;;;;;;1.33;1.33;;;;;;;;5057936;28;45197;-69
2022/05/26 05:48:32;;;;;;;;;2.00;1.00;;;;;;;;5054620;28;45398;-70
2022/05/26 05:50:57;;;;;;;;;2.33;2.00;;;;;;;;5058634;28;45327;-70
2022/05/26 05:53:22;;;;;;;;;2.33;1.00;;;;;;;;5047504;28;45402;-70
2022/05/26 05:55:47;;;;;;;;;1.00;1.00;;;;;;;;5058342;28;45205;-70
2022/05/26 05:58:13;;;;;;;;;1.00;1.00;;;;;;;;5048554;28;45268;-70
2022/05/26 06:00:39;;;;;;;;;3.00;2.00;;;;;;;;5045031;28;45100;-70
2022/05/26 06:03:04;;;;;;;;;3.00;2.00;;;;;;;;5052185;28;45301;-70
2022/05/26 06:05:30;;;;;;;;;1.67;1.00;;;;;;;;5057833;28;46739;-69
2022/05/26 06:07:55;;;;;;;;;1.00;1.00;;;;;;;;5052452;28;45284;-70
2022/05/26 06:10:20;;;;;;;;;1.00;1.00;;;;;;;;5059738;28;45366;-70
2022/05/26 06:12:46;;;;;;;;;2.00;2.00;;;;;;;;5050779;28;45356;-70
2022/05/26 06:15:11;;;;;;;;;0.00;0.00;;;;;;;;5061274;28;46346;-70
2022/05/26 06:17:37;;;;;;;;;2.00;0.00;;;;;;;;5054598;28;45327;-71
2022/05/26 06:20:03;;;;;;;;;2.00;0.00;;;;;;;;5061649;28;45307;-70
2022/05/26 06:22:29;;;;;;;;;2.00;1.00;;;;;;;;5053607;28;45796;-69
2022/05/26 06:24:54;;;;;;;;;1.00;1.00;;;;;;;;5059820;28;47223;-70
2022/05/26 06:30:05;;;;;;;;;0.00;0.00;;;;;;;;5061586;28;45379;-70
2022/05/26 06:38:08;;;;;;;;;0.00;0.00;;;;;;;;5052202;28;45402;-70
2022/05/26 06:40:35;;;;;;;;;1.00;1.00;;;;;;;;5043676;28;46455;-70
2022/05/26 06:43:00;;;;;;;;;0.00;0.00;;;;;;;;5054387;28;45442;-71
2022/05/26 06:45:25;;;;;;;;;1.00;1.00;;;;;;;;5060983;28;46442;-71
2022/05/26 06:47:50;;;;;;;;;1.00;1.00;;;;;;;;5058340;28;45392;-70
2022/05/26 06:50:16;;;;;;;;;0.67;0.00;;;;;;;;5060680;28;45406;-69
2022/05/26 06:52:41;;;;;;;;;1.00;1.00;;;;;;;;5055865;28;45232;-70
2022/05/26 06:55:07;;;;;;;;;0.00;0.00;;;;;;;;5057526;28;45193;-70
2022/05/26 06:57:33;;;;;;;;;0.00;0.00;;;;;;;;5056248;28;45489;-70
2022/05/26 06:59:59;;;;;;;;;1.00;0.00;;;;;;;;5057249;28;45205;-71
2022/05/26 07:02:25;;;;;;;;;0.00;0.00;;;;;;;;5054559;28;45291;-70
2022/05/26 07:04:50;;;;;;;;;0.00;0.00;;;;;;;;5059142;28;47432;-71
2022/05/26 07:07:16;;;;;;;;;0.00;0.00;;;;;;;;5056948;28;45929;-71
2022/05/26 07:09:42;;;;;;;;;0.67;0.67;;;;;;;;5060464;28;45243;-71
2022/05/26 07:12:08;;;;;;;;;2.00;0.00;;;;;;;;5057231;28;45370;-71
2022/05/26 07:14:33;;;;;;;;;0.00;0.00;;;;;;;;5066864;28;48261;-71
2022/05/26 07:16:58;;;;;;;;;2.00;2.00;;;;;;;;5053539;28;45602;-71
2022/05/26 07:19:24;;;;;;;;;0.00;0.00;;;;;;;;5058765;28;45437;-70
2022/05/26 07:21:49;;;;;;;;;1.00;1.00;;;;;;;;5057326;28;45460;-70
2022/05/26 07:24:19;;;;;;;;;0.00;0.00;;;;;;;;5056183;28;45399;-70
2022/05/26 07:26:45;;;;;;;;;0.00;0.00;;;;;;;;5055088;28;45384;-70
2022/05/26 07:29:10;;;;;;;;;0.00;0.00;;;;;;;;5056848;28;45458;-70
2022/05/26 07:31:35;;;;;;;;;0.00;0.00;;;;;;;;5058154;28;45615;-70
2022/05/26 07:34:01;;;;;;;;;0.33;0.00;;;;;;;;5058687;28;47099;-70
2022/05/26 07:41:57;;;;;;;;;2.00;2.00;;;;;;;;5053312;28;45621;-69
2022/05/26 07:44:23;;;;;;;;;4.00;2.00;;;;;;;;5053990;28;46528;-70
2022/05/26 07:46:48;;;;;;;;;7.00;4.00;;;;;;;;5054253;28;45632;-70
2022/05/26 07:49:13;;;;;;;;;5.00;5.00;;;;;;;;5055564;28;44808;-70
2022/05/26 07:51:38;;;;;;;;;3.67;3.00;;;;;;;;5055405;28;46411;-69
2022/05/26 07:54:04;;;;;;;;;3.00;3.00;;;;;;;;5045728;28;47112;-70
2022/05/26 07:56:33;;;;;;;;;5.33;4.33;;;;;;;;5057287;28;45262;-70
2022/05/26 07:58:58;;;;;;;;;10.33;5.00;;;;;;;;5053054;28;45335;-70
2022/05/26 08:01:23;;;;;;;;;7.33;4.33;;;;;;;;5057828;28;46907;-70
2022/05/26 08:03:53;;;;;;;;;4.00;4.00;;;;;;;;5055186;28;45271;-70
2022/05/26 08:06:18;;;;;;;;;4.67;4.67;;;;;;;;5062564;28;45359;-70
2022/05/26 08:08:44;;;;;;;;;3.67;3.67;;;;;;;;5054500;28;45314;-70
2022/05/26 08:11:09;;;;;;;;;4.00;4.00;;;;;;;;5058492;28;45942;-70
2022/05/26 08:13:34;;;;;;;;;4.67;3.67;;;;;;;;5058151;28;47792;-70
2022/05/26 08:15:59;;;;;;;;;2.33;2.33;;;;;;;;5058348;28;45732;-70
2022/05/26 08:18:27;;;;;;;;;4.67;3.00;;;;;;;;5053109;28;44823;-72
2022/05/26 08:20:52;;;;;;;;;8.00;5.00;;;;;;;;5058525;28;46283;-70
2022/05/26 08:23:22;;;;;;;;;5.00;3.67;;;;;;;;5052530;28;45313;-70
2022/05/26 08:25:47;;;;;;;;;3.33;3.00;;;;;;;;5057590;28;45802;-70
2022/05/26 08:28:12;;;;;;;;;3.00;2.67;;;;;;;;5052863;28;45474;-70
2022/05/26 08:30:39;;;;;;;;;5.00;5.00;;;;;;;;5059438;28;44857;-70
2022/05/26 08:33:04;;;;;;;;;3.00;3.00;;;;;;;;5053369;28;45579;-70
2022/05/26 08:35:30;;;;;;;;;7.00;6.00;;;;;;;;5055541;28;45312;-69
2022/05/26 08:37:55;;;;;;;;;5.33;5.33;;;;;;;;5054604;28;45403;-69
2022/05/26 08:40:24;;;;;;;;;6.67;4.33;;;;;;;;5057371;28;46066;-69
2022/05/26 08:42:49;;;;;;;;;7.33;5.00;;;;;;;;5051156;28;48512;-70
2022/05/26 08:45:15;;;;;;;;;5.33;4.33;;;;;;;;5054130;28;45578;-69
2022/05/26 08:47:42;;;;;;;;;4.67;4.33;;;;;;;;5051784;28;45278;-69
2022/05/26 08:50:09;;;;;;;;;5.00;4.00;;;;;;;;5047990;28;45336;-70
2022/05/26 08:52:35;;;;;;;;;3.00;3.00;;;;;;;;5048904;28;45517;-69
2022/05/26 08:55:11;;;;;;;;;5.00;4.00;;;;;;;;5057266;28;45719;-69
2022/05/26 08:57:48;;;;;;;;;4.67;4.67;;;;;;;;5055239;28;45525;-69
2022/05/26 09:00:15;;;;;;;;;8.00;5.00;;;;;;;;5058124;28;45637;-68
2022/05/26 09:02:40;;;;;;;;;6.67;4.00;;;;;;;;5056755;28;47143;-68
2022/05/26 09:05:17;;;;;;;;;4.00;4.00;;;;;;;;5058031;28;45417;-69
2022/05/26 09:13:34;;;;;;;;;3.00;3.00;;;;;;;;5056288;28;45332;-68
2022/05/26 09:15:59;;;;;;;;;3.00;3.00;;;;;;;;5058808;28;45331;-68
2022/05/26 09:18:25;;;;;;;;;3.33;3.33;;;;;;;;5056267;28;45304;-68
2022/05/26 09:20:51;;;;;;;;;5.33;4.00;;;;;;;;5077133;27;46158;-69
2022/05/26 09:23:27;;;;;;;;;3.33;3.33;;;;;;;;5055238;28;45168;-69
2022/05/26 09:25:52;;;;;;;;;4.33;3.00;;;;;;;;5077756;27;46359;-70
2022/05/26 09:28:28;;;;;;;;;3.00;2.67;;;;;;;;5055001;28;45468;-68
2022/05/26 09:30:54;;;;;;;;;4.33;4.00;;;;;;;;5055553;28;45118;-69
2022/05/26 09:33:26;;;;;;;;;3.00;3.00;;;;;;;;5052748;28;45383;-69
2022/05/26 09:35:51;;;;;;;;;4.00;3.33;;;;;;;;5055736;28;45286;-70
2022/05/26 09:38:18;;;;;;;;;2.00;2.00;;;;;;;;5056026;28;45266;-69
2022/05/26 09:40:48;;;;;;;;;2.67;2.67;;;;;;;;5056396;28;47294;-68
2022/05/26 09:43:16;;;;;;;;;3.33;2.00;;;;;;;;5080217;27;47640;-69
2022/05/26 09:45:41;;;;;;;;;7.00;3.00;;;;;;;;5057370;28;45517;-68
2022/05/26 09:48:15;;;;;;;;;6.33;3.67;;;;;;;;5055046;28;45435;-68
2022/05/26 09:50:43;;;;;;;;;3.33;3.33;;;;;;;;5061952;28;45236;-67
2022/05/26 09:53:09;;;;;;;;;2.00;1.67;;;;;;;;5059366;28;48410;-68
2022/05/26 09:55:44;;;;;;;;;2.00;2.00;;;;;;;;5061200;28;45295;-67
2022/05/26 09:58:11;;;;;;;;;2.00;2.00;;;;;;;;5055276;28;45402;-69
2022/05/26 10:00:36;;;;;;;;;2.67;2.67;;;;;;;;5058460;28;45272;-68
2022/05/26 10:03:06;;;;;;;;;2.00;2.00;;;;;;;;5052515;28;45525;-68
2022/05/26 10:05:34;;;;;;;;;1.00;1.00;;;;;;;;5060034;28;46577;-68
2022/05/26 10:08:08;;;;;;;;;2.00;2.00;;;;;;;;5052344;28;45166;-67
2022/05/26 10:10:38;;;;;;;;;3.33;2.33;;;;;;;;5060189;28;46273;-67
2022/05/26 10:13:10;;;;;;;;;2.00;2.00;;;;;;;;5054709;28;46081;-67
2022/05/26 10:15:36;;;;;;;;;2.33;1.33;;;;;;;;5059842;28;45946;-68
2022/05/26 10:18:10;;;;;;;;;2.67;2.67;;;;;;;;5053396;28;45482;-69
2022/05/26 10:20:45;;;;;;;;;1.67;1.67;;;;;;;;5059949;28;45685;-69
2022/05/26 10:23:29;;;;;;;;;1.33;1.33;;;;;;;;5054793;28;46376;-69
2022/05/26 10:26:13;;;;;;;;;1.33;1.33;;;;;;;;5057296;28;45388;-69
2022/05/26 10:28:42;;;;;;;;;2.00;1.33;;;;;;;;5052239;28;45296;-68
2022/05/26 10:31:07;;;;;;;;;1.00;1.00;;;;;;;;5060111;28;45320;-69
2022/05/26 10:33:44;;;;;;;;;1.00;1.00;;;;;;;;5053568;28;45423;-68
2022/05/26 10:36:09;;;;;;;;;2.00;1.25;;;;;;;;5048293;28;45279;-69
2022/05/26 10:38:47;;;;;;;;;3.00;2.75;;;;;;;;5052513;28;45328;-69
2022/05/26 10:41:16;;;;;;;;;0.50;0.00;;;;;;;;5060742;28;45356;-70
2022/05/26 10:43:44;;;;;;;;;0.50;0.50;;;;;;;;5055375;28;48379;-70
2022/05/26 10:46:11;;;;;;;;;0.50;0.50;;;;;;;;5061089;28;45308;-69
2022/05/26 10:48:43;;;;;;;;;1.00;1.00;;;;;;;;5048951;28;45395;-69
2022/05/26 10:51:17;;;;;;;;;0.00;0.00;;;;;;;;5084074;27;47279;-70
2022/05/26 10:54:01;;;;;;;;;0.00;0.00;;;;;;;;5050688;28;45509;-69
2022/05/26 10:56:32;;;;;;;;;0.75;0.75;;;;;;;;5064819;28;45310;-70
2022/05/26 10:59:03;;;;;;;;;2.00;1.50;;;;;;;;5054592;28;45382;-70
2022/05/26 11:01:33;;;;;;;;;1.00;1.00;;;;;;;;5059920;28;45333;-69
2022/05/26 11:04:09;;;;;;;;;1.50;1.50;;;;;;;;5056142;28;45601;-68
2022/05/26 11:06:36;;;;;;;;;1.00;1.00;;;;;;;;5057854;28;45266;-68
2022/05/26 11:09:08;;;;;;;;;0.50;0.50;;;;;;;;5054838;28;45496;-68
2022/05/26 11:11:36;;;;;;;;;2.25;2.00;;;;;;;;5056972;28;46416;-68
2022/05/26 11:14:07;;;;;;;;;2.25;2.00;;;;;;;;5055809;28;45441;-68
2022/05/26 11:19:35;;;;;;;;;2.00;2.00;;;;;;;;5058856;28;45454;-70
2022/05/26 11:22:02;;;;;;;;;3.00;3.00;;;;;;;;5053607;28;47443;-70
2022/05/26 11:24:27;;;;;;;;;2.00;0.75;;;;;;;;5058397;28;47333;-70
2022/05/26 11:27:12;;;;;;;;;2.00;2.00;;;;;;;;5053738;28;46468;-70
2022/05/26 11:29:39;;;;;;;;;2.00;1.00;;;;;;;;5058413;28;45387;-69
2022/05/26 11:37:53;;;;;;;;;1.75;1.75;;;;;;;;5054932;28;45295;-70
2022/05/26 11:40:26;;;;;;;;;1.25;0.50;;;;;;;;5059007;28;45268;-70
2022/05/26 11:42:54;;;;;;;;;1.25;1.00;;;;;;;;5053052;28;45379;-69
2022/05/26 11:45:21;;;;;;;;;0.00;0.00;;;;;;;;5059380;28;45312;-70
2022/05/26 11:47:47;;;;;;;;;0.00;0.00;;;;;;;;5052468;28;45377;-70
2022/05/26 11:50:22;;;;;;;;;0.00;0.00;;;;;;;;5054807;28;45445;-69
2022/05/26 11:52:53;;;;;;;;;0.00;0.00;;;;;;;;5053302;28;45783;-69
2022/05/26 11:55:45;;;;;;;;;0.00;0.00;;;;;;;;5057008;28;45207;-70
2022/05/26 11:58:28;;;;;;;;;0.00;0.00;;;;;;;;5054465;28;45232;-70
2022/05/26 12:01:14;;;;;;;;;0.00;0.00;;;;;;;;5049606;28;45363;-70
2022/05/26 12:04:00;;;;;;;;;0.00;0.00;;;;;;;;5080438;27;46996;-70
2022/05/26 12:06:42;;;;;;;;;1.00;1.00;;;;;;;;5058090;28;46682;-70
2022/05/26 12:09:10;;;;;;;;;0.40;0.00;;;;;;;;5055453;28;45465;-70
2022/05/26 12:12:01;;;;;;;;;0.00;0.00;;;;;;;;5056804;28;45487;-70
2022/05/26 12:14:35;;;;;;;;;0.00;0.00;;;;;;;;5056956;28;45543;-70
2022/05/26 12:17:19;;;;;;;;;0.00;0.00;;;;;;;;5055237;28;46340;-70
2022/05/26 12:19:45;;;;;;;;;0.00;0.00;;;;;;;;5058259;28;45295;-70
2022/05/26 12:22:31;;;;;;;;;1.00;0.00;;;;;;;;5057798;28;45398;-71
2022/05/26 12:24:59;;;;;;;;;4.00;3.00;;;;;;;;5057673;28;45525;-70
2022/05/26 12:27:42;;;;;;;;;1.60;1.60;;;;;;;;5053428;28;45640;-70
2022/05/26 12:30:08;;;;;;;;;2.20;2.20;;;;;;;;5055423;28;45347;-70
2022/05/26 12:32:36;;;;;;;;;3.75;3.75;;;;;;;;5050771;28;45254;-71
2022/05/26 12:35:07;;;;;;;;;7.00;6.00;;;;;;;;5050606;28;46079;-70
2022/05/26 12:37:36;;;;;;;;;2.20;2.20;;;;;;;;5052405;28;48211;-70
2022/05/26 12:40:21;;;;;;;;;1.00;0.80;;;;;;;;5051760;28;45297;-71
2022/05/26 12:42:49;;;;;;;;;0.80;0.80;;;;;;;;5056064;28;45468;-71
2022/05/26 12:45:20;;;;;;;;;1.00;1.00;;;;;;;;5058422;28;45238;-72
2022/05/26 12:48:04;;;;;;;;;0.20;0.20;;;;;;;;5052600;28;45768;-70
2022/05/26 12:50:31;;;;;;;;;1.80;1.80;;;;;;;;5057156;28;45246;-70
2022/05/26 12:52:59;;;;;;;;;0.80;0.80;;;;;;;;5051273;28;45423;-70
2022/05/26 12:55:29;;;;;;;;;1.00;1.00;;;;;;;;5054849;28;46372;-70
2022/05/26 12:57:54;;;;;;;;;0.75;0.75;;;;;;;;5050387;28;47087;-69
2022/05/26 13:00:21;;;;;;;;;0.75;0.75;;;;;;;;5055170;28;45527;-69
2022/05/26 13:02:50;;;;;;;;;0.00;0.00;;;;;;;;5057148;28;45407;-73
2022/05/26 13:05:16;;;;;;;;;1.00;1.00;;;;;;;;5058731;28;45355;-72
2022/05/26 13:07:45;;;;;;;;;0.50;0.50;;;;;;;;5052399;28;45615;-72
2022/05/26 13:10:13;;;;;;;;;0.00;0.00;;;;;;;;5057518;28;45361;-70
2022/05/26 13:12:38;;;;;;;;;1.00;1.00;;;;;;;;5052381;28;45419;-72
2022/05/26 13:15:04;;;;;;;;;0.75;0.75;;;;;;;;5058626;28;45566;-72
2022/05/26 13:17:29;;;;;;;;;0.50;0.50;;;;;;;;5052069;28;45383;-70
2022/05/26 13:19:56;;;;;;;;;0.00;0.00;;;;;;;;5058804;28;45390;-71
2022/05/26 13:22:35;;;;;;;;;0.00;0.00;;;;;;;;5053084;28;45323;-71
2022/05/26 13:25:02;;;;;;;;;0.50;0.50;;;;;;;;5056837;28;45733;-72
2022/05/26 13:27:40;;;;;;;;;0.00;0.00;;;;;;;;5055838;28;45410;-70
2022/05/26 13:33:08;;;;;;;;;0.50;0.50;;;;;;;;5056802;28;45267;-70
2022/05/26 13:35:38;;;;;;;;;0.00;0.00;;;;;;;;5059013;28;45263;-71
2022/05/26 13:38:03;;;;;;;;;0.80;0.80;;;;;;;;5058238;28;45628;-70
2022/05/26 13:40:28;;;;;;;;;0.00;0.00;;;;;;;;5059838;28;45273;-70
2022/05/26 13:42:54;;;;;;;;;0.00;0.00;;;;;;;;5059249;28;45330;-70
2022/05/26 13:45:34;;;;;;;;;1.25;0.25;;;;;;;;5060657;28;45486;-70
2022/05/26 13:48:18;;;;;;;;;0.20;0.20;;;;;;;;5053878;28;45584;-71
2022/05/26 13:50:50;;;;;;;;;1.00;1.00;;;;;;;;5061711;28;45233;-71
2022/05/26 13:53:15;;;;;;;;;1.75;1.00;;;;;;;;5052184;28;45348;-71
2022/05/26 13:55:44;;;;;;;;;1.75;0.00;;;;;;;;5059900;28;45864;-69
2022/05/26 13:58:09;;;;;;;;;1.20;1.00;;;;;;;;5055301;28;45228;-70
2022/05/26 14:00:36;;;;;;;;;0.75;0.75;;;;;;;;5061684;28;45485;-69
2022/05/26 14:03:02;;;;;;;;;1.00;0.80;;;;;;;;5056280;28;45524;-70
2022/05/26 14:05:27;;;;;;;;;1.00;1.00;;;;;;;;5061514;28;45506;-69
2022/05/26 14:08:00;;;;;;;;;0.75;0.00;;;;;;;;5052020;28;47103;-69
2022/05/26 14:10:29;;;;;;;;;0.00;0.00;;;;;;;;5060392;28;45801;-70
2022/05/26 14:13:23;;;;;;;;;0.00;0.00;;;;;;;;5052073;28;45277;-70
2022/05/26 14:15:48;;;;;;;;;0.00;0.00;;;;;;;;5053934;28;45415;-71
2022/05/26 14:18:34;;;;;;;;;1.00;1.00;;;;;;;;5053268;28;48075;-71
2022/05/26 14:21:00;;;;;;;;;0.80;0.80;;;;;;;;5055108;28;45330;-71
2022/05/26 14:23:26;;;;;;;;;2.00;2.00;;;;;;;;5052980;28;45362;-71
2022/05/26 14:25:55;;;;;;;;;0.25;0.25;;;;;;;;5074363;27;46181;-70
2022/05/26 14:28:37;;;;;;;;;0.00;0.00;;;;;;;;5055729;28;45685;-69
2022/05/26 14:31:04;;;;;;;;;1.80;1.00;;;;;;;;5073227;27;45260;-70
2022/05/26 14:33:30;;;;;;;;;0.00;0.00;;;;;;;;5049443;28;45391;-69
2022/05/26 14:35:56;;;;;;;;;0.00;0.00;;;;;;;;5056896;28;45536;-70
2022/05/26 14:38:21;;;;;;;;;1.00;1.00;;;;;;;;5052313;28;47014;-70
2022/05/26 14:40:47;;;;;;;;;0.75;0.75;;;;;;;;5058898;28;45470;-70
2022/05/26 14:43:15;;;;;;;;;3.75;0.25;;;;;;;;5053596;28;45538;-70
2022/05/26 14:45:41;;;;;;;;;0.75;0.75;;;;;;;;5058794;28;46014;-70
2022/05/26 14:48:07;;;;;;;;;0.75;0.75;;;;;;;;5057716;28;46316;-70
2022/05/26 14:50:32;;;;;;;;;0.40;0.40;;;;;;;;5060500;28;45418;-70
2022/05/26 14:53:00;;;;;;;;;0.75;0.75;;;;;;;;5057513;28;45776;-71
2022/05/26 14:55:29;;;;;;;;;2.75;0.75;;;;;;;;5060253;28;45375;-71
2022/05/26 14:58:03;;;;;;;;;0.50;0.50;;;;;;;;5059042;28;46430;-73
2022/05/26 15:00:31;;;;;;;;;1.00;1.00;;;;;;;;5059929;28;45397;-71
2022/05/26 15:02:57;;;;;;;;;1.00;1.00;;;;;;;;5052368;28;45383;-70
2022/05/26 15:05:22;;;;;;;;;1.00;1.00;;;;;;;;5058814;28;47445;-70
2022/05/26 15:07:47;;;;;;;;;0.75;0.75;;;;;;;;5055712;28;45939;-70
2022/05/26 15:10:13;;;;;;;;;1.25;1.25;;;;;;;;5060083;28;45407;-70
2022/05/26 15:12:39;;;;;;;;;1.50;1.00;;;;;;;;5055685;28;45343;-70
2022/05/26 15:15:06;;;;;;;;;2.00;1.00;;;;;;;;5060391;28;45244;-71
2022/05/26 15:17:32;;;;;;;;;4.25;0.75;;;;;;;;5051949;28;46520;-71
2022/05/26 15:19:59;;;;;;;;;0.75;0.75;;;;;;;;5060132;28;45374;-70
2022/05/26 15:22:25;;;;;;;;;1.00;1.00;;;;;;;;5053608;28;45584;-71
2022/05/26 15:24:51;;;;;;;;;0.25;0.25;;;;;;;;5059866;28;45461;-71
2022/05/26 15:27:19;;;;;;;;;1.00;1.00;;;;;;;;5054662;28;45294;-71
2022/05/26 15:29:44;;;;;;;;;1.00;1.00;;;;;;;;5051057;28;45323;-71
2022/05/26 15:32:10;;;;;;;;;0.75;0.75;;;;;;;;5055795;28;45237;-70